createdAt,value
2018-05-06T00:02:12.351Z,16.25
2018-05-06T00:04:40.034Z,16.25
2018-05-06T00:07:07.710Z,16.25
2018-05-06T00:09:35.871Z,16.22
2018-05-06T00:12:03.483Z,16.14
2018-05-06T00:14:31.089Z,16.13
2018-05-06T00:16:58.706Z,16.17
2018-05-06T00:19:26.393Z,16.15
2018-05-06T00:21:53.982Z,16.13
2018-05-06T00:24:21.598Z,16.02
2018-05-06T00:26:49.198Z,15.98
2018-05-06T00:29:16.810Z,16.04
2018-05-06T00:31:44.412Z,16.02
2018-05-06T00:34:12.039Z,15.92
2018-05-06T00:36:39.650Z,15.85
2018-05-06T00:39:07.274Z,15.76
2018-05-06T00:41:34.914Z,15.82
2018-05-06T00:44:02.527Z,15.83
2018-05-06T00:46:30.147Z,15.70
2018-05-06T00:48:57.770Z,15.72
2018-05-06T00:51:25.374Z,15.65
2018-05-06T00:53:52.989Z,15.64
2018-05-06T00:56:20.587Z,15.59
2018-05-06T00:58:48.195Z,15.57
2018-05-06T01:01:15.786Z,15.61
2018-05-06T01:03:43.374Z,15.45
2018-05-06T01:06:11.070Z,15.50
2018-05-06T01:08:38.673Z,15.51
2018-05-06T01:11:06.293Z,15.48
2018-05-06T01:13:33.886Z,15.27
2018-05-06T01:16:01.509Z,15.30
2018-05-06T01:18:29.099Z,15.33
2018-05-06T01:20:56.712Z,15.34
2018-05-06T01:23:24.305Z,15.34
2018-05-06T01:25:51.914Z,15.26
2018-05-06T01:28:19.504Z,15.20
2018-05-06T01:30:47.121Z,15.24
2018-05-06T01:33:15.579Z,15.29
2018-05-06T01:35:43.198Z,15.24
2018-05-06T01:38:10.779Z,15.18
2018-05-06T01:40:38.396Z,15.16
2018-05-06T01:43:05.978Z,15.08
2018-05-06T01:45:33.572Z,15.09
2018-05-06T01:48:01.183Z,14.88
2018-05-06T01:50:28.769Z,14.93
2018-05-06T01:52:56.385Z,14.95
2018-05-06T01:55:23.971Z,14.79
2018-05-06T01:57:51.919Z,14.87
2018-05-06T02:00:19.510Z,14.83
2018-05-06T02:02:47.097Z,14.86
2018-05-06T02:05:14.742Z,14.80
2018-05-06T02:07:42.336Z,14.59
2018-05-06T02:10:09.951Z,14.59
2018-05-06T02:12:37.545Z,14.55
2018-05-06T02:15:05.168Z,14.58
2018-05-06T02:17:32.758Z,14.56
2018-05-06T02:20:00.344Z,14.39
2018-05-06T02:22:27.959Z,14.36
2018-05-06T02:24:55.555Z,14.48
2018-05-06T02:27:23.163Z,14.50
2018-05-06T02:29:50.765Z,14.41
2018-05-06T02:32:18.407Z,14.38
2018-05-06T02:34:45.999Z,14.34
2018-05-06T02:37:13.619Z,14.30
2018-05-06T02:39:41.230Z,14.32
2018-05-06T02:42:08.827Z,14.35
2018-05-06T02:44:36.688Z,14.24
2018-05-06T02:47:04.278Z,14.29
2018-05-06T02:49:31.878Z,14.26
2018-05-06T02:51:59.495Z,14.30
2018-05-06T02:54:27.139Z,14.32
2018-05-06T02:56:54.795Z,14.29
2018-05-06T02:59:22.447Z,14.29
2018-05-06T03:01:50.038Z,14.23
2018-05-06T03:04:17.651Z,14.10
2018-05-06T03:06:45.239Z,14.09
2018-05-06T03:09:12.864Z,14.01
2018-05-06T03:11:40.464Z,14.06
2018-05-06T03:14:08.328Z,14.03
2018-05-06T03:16:35.926Z,14.04
2018-05-06T03:19:03.515Z,14.04
2018-05-06T03:21:31.136Z,14.07
2018-05-06T03:23:58.725Z,14.08
2018-05-06T03:26:26.334Z,14.02
2018-05-06T03:28:53.933Z,14.08
2018-05-06T03:31:21.825Z,14.10
2018-05-06T03:33:49.434Z,14.15
2018-05-06T03:36:17.019Z,14.19
2018-05-06T03:38:44.635Z,14.19
2018-05-06T03:41:12.227Z,14.05
2018-05-06T03:43:39.852Z,14.04
2018-05-06T03:46:07.436Z,13.87
2018-05-06T03:48:35.059Z,13.87
2018-05-06T03:51:02.654Z,13.81
2018-05-06T03:53:30.258Z,13.77
2018-05-06T03:59:25.660Z,13.66
2018-05-06T04:04:59.490Z,13.59
2018-05-06T04:07:27.100Z,13.63
2018-05-06T04:09:54.681Z,13.65
2018-05-06T04:12:22.455Z,13.70
2018-05-06T04:14:50.062Z,13.59
2018-05-06T04:17:17.653Z,13.67
2018-05-06T04:19:45.277Z,13.61
2018-05-06T04:22:12.866Z,13.58
2018-05-06T04:24:40.522Z,13.64
2018-05-06T04:27:08.114Z,13.65
2018-05-06T04:29:36.007Z,13.73
2018-05-06T04:32:03.602Z,13.70
2018-05-06T04:34:31.199Z,13.68
2018-05-06T04:36:58.820Z,13.58
2018-05-06T04:39:26.405Z,13.54
2018-05-06T04:41:54.026Z,13.53
2018-05-06T04:44:21.677Z,13.49
2018-05-06T04:46:49.506Z,13.56
2018-05-06T04:49:17.091Z,13.61
2018-05-06T04:51:44.686Z,13.63
2018-05-06T04:54:12.303Z,13.51
2018-05-06T04:56:39.895Z,13.61
2018-05-06T04:59:07.511Z,13.65
2018-05-06T05:01:35.103Z,13.68
2018-05-06T05:04:02.715Z,13.77
2018-05-06T05:06:30.306Z,13.78
2018-05-06T05:08:57.903Z,13.73
2018-05-06T05:11:25.515Z,13.76
2018-05-06T05:13:53.113Z,13.76
2018-05-06T05:16:20.719Z,13.81
2018-05-06T05:18:48.302Z,13.85
2018-05-06T05:21:16.094Z,13.93
2018-05-06T05:23:43.686Z,13.85
2018-05-06T05:26:11.332Z,13.85
2018-05-06T05:28:38.939Z,13.74
2018-05-06T05:31:06.528Z,13.81
2018-05-06T05:33:34.151Z,13.85
2018-05-06T05:36:01.735Z,13.77
2018-05-06T05:38:29.534Z,13.94
2018-05-06T05:40:57.117Z,14.05
2018-05-06T05:43:24.702Z,13.95
2018-05-06T05:45:52.315Z,13.95
2018-05-06T05:48:19.917Z,14.06
2018-05-06T05:50:47.530Z,14.12
2018-05-06T05:53:15.122Z,14.09
2018-05-06T05:55:42.770Z,14.04
2018-05-06T05:58:10.429Z,14.05
2018-05-06T06:00:38.040Z,14.11
2018-05-06T06:03:05.653Z,14.29
2018-05-06T06:05:33.254Z,14.28
2018-05-06T06:08:00.866Z,14.38
2018-05-06T06:10:28.466Z,14.48
2018-05-06T06:12:56.278Z,14.49
2018-05-06T06:15:23.874Z,14.63
2018-05-06T06:17:51.463Z,14.59
2018-05-06T06:20:19.079Z,14.71
2018-05-06T06:22:46.680Z,14.78
2018-05-06T06:25:14.306Z,14.78
2018-05-06T06:27:41.898Z,14.90
2018-05-06T06:30:09.952Z,15.06
2018-05-06T06:32:37.542Z,15.11
2018-05-06T06:35:05.126Z,15.25
2018-05-06T06:37:32.745Z,15.30
2018-05-06T06:40:00.334Z,15.33
2018-05-06T06:42:27.943Z,15.41
2018-05-06T06:44:55.530Z,15.36
2018-05-06T06:47:23.484Z,15.62
2018-05-06T06:49:51.080Z,15.75
2018-05-06T06:52:18.680Z,15.86
2018-05-06T06:54:46.296Z,15.96
2018-05-06T06:57:13.920Z,16.13
2018-05-06T06:59:41.528Z,16.22
2018-05-06T07:02:09.118Z,16.31
2018-05-06T07:04:37.011Z,16.39
2018-05-06T07:07:04.605Z,16.56
2018-05-06T07:09:32.190Z,16.56
2018-05-06T07:11:59.811Z,16.63
2018-05-06T07:14:27.404Z,16.75
2018-05-06T07:16:55.027Z,16.80
2018-05-06T07:19:22.664Z,16.84
2018-05-06T07:21:50.639Z,17.06
2018-05-06T07:24:18.227Z,17.19
2018-05-06T07:26:45.819Z,17.19
2018-05-06T07:29:13.427Z,17.27
2018-05-06T07:31:41.025Z,17.30
2018-05-06T07:34:08.652Z,17.41
2018-05-06T07:36:36.239Z,17.26
2018-05-06T07:39:04.074Z,17.28
2018-05-06T07:41:31.814Z,17.51
2018-05-06T07:43:59.429Z,17.55
2018-05-06T07:46:27.050Z,17.61
2018-05-06T07:48:54.766Z,17.53
2018-05-06T07:51:22.375Z,17.61
2018-05-06T07:53:49.984Z,17.62
2018-05-06T07:56:17.605Z,17.71
2018-05-06T07:58:45.638Z,17.75
2018-05-06T08:01:13.191Z,17.80
2018-05-06T08:03:40.847Z,17.97
2018-05-06T08:06:08.437Z,18.08
2018-05-06T08:08:36.054Z,18.33
2018-05-06T08:11:03.650Z,18.46
2018-05-06T08:13:31.568Z,18.48
2018-05-06T08:15:59.167Z,18.45
2018-05-06T08:18:26.757Z,18.49
2018-05-06T08:20:54.370Z,18.55
2018-05-06T08:23:22.711Z,18.70
2018-05-06T08:25:50.348Z,18.83
2018-05-06T08:28:17.935Z,18.99
2018-05-06T08:30:45.738Z,18.98
2018-05-06T08:33:13.333Z,18.78
2018-05-06T08:35:40.922Z,18.95
2018-05-06T08:38:09.171Z,18.92
2018-05-06T08:40:36.758Z,19.02
2018-05-06T08:43:04.452Z,19.10
2018-05-06T08:45:32.043Z,19.15
2018-05-06T08:47:59.638Z,19.16
2018-05-06T08:50:27.256Z,19.23
2018-05-06T08:52:54.842Z,19.20
2018-05-06T08:55:22.658Z,19.25
2018-05-06T08:57:50.252Z,19.15
2018-05-06T09:00:17.839Z,19.33
2018-05-06T09:02:45.453Z,19.36
2018-05-06T09:05:13.048Z,19.45
2018-05-06T09:07:40.659Z,19.54
2018-05-06T09:10:08.258Z,19.51
2018-05-06T09:12:35.915Z,19.64
2018-05-06T09:15:03.510Z,19.69
2018-05-06T09:17:31.095Z,19.92
2018-05-06T09:19:58.774Z,19.94
2018-05-06T09:22:26.402Z,20.04
2018-05-06T09:24:53.979Z,20.12
2018-05-06T09:27:21.583Z,20.22
2018-05-06T09:29:49.456Z,20.25
2018-05-06T09:32:17.117Z,20.21
2018-05-06T09:34:44.662Z,20.20
2018-05-06T09:37:12.302Z,20.27
2018-05-06T09:39:39.895Z,20.36
2018-05-06T09:42:07.508Z,20.35
2018-05-06T09:44:35.091Z,20.44
2018-05-06T09:47:03.129Z,20.49
2018-05-06T09:49:30.765Z,20.59
2018-05-06T09:51:58.382Z,20.52
2018-05-06T09:54:26.004Z,20.58
2018-05-06T09:56:53.595Z,20.82
2018-05-06T09:59:21.203Z,20.97
2018-05-06T10:01:48.798Z,20.98
2018-05-06T10:04:16.405Z,21.07
2018-05-06T10:06:43.990Z,20.99
2018-05-06T10:09:11.603Z,21.05
2018-05-06T10:11:39.200Z,21.16
2018-05-06T10:14:06.811Z,21.16
2018-05-06T10:16:34.407Z,21.20
2018-05-06T10:19:02.123Z,21.22
2018-05-06T10:21:29.730Z,21.31
2018-05-06T10:23:57.343Z,21.33
2018-05-06T10:26:24.940Z,21.25
2018-05-06T10:28:52.559Z,21.43
2018-05-06T10:31:20.146Z,21.54
2018-05-06T10:33:47.764Z,21.53
2018-05-06T10:36:15.354Z,21.71
2018-05-06T10:38:42.998Z,21.58
2018-05-06T10:41:10.594Z,21.64
2018-05-06T10:43:38.209Z,21.48
2018-05-06T10:46:05.820Z,21.48
2018-05-06T10:48:33.454Z,21.67
2018-05-06T10:51:01.058Z,21.74
2018-05-06T10:53:28.675Z,21.83
2018-05-06T10:55:56.266Z,21.94
2018-05-06T10:58:24.069Z,22.06
2018-05-06T11:00:51.658Z,21.84
2018-05-06T11:03:19.266Z,22.00
2018-05-06T11:05:46.881Z,21.94
2018-05-06T11:08:14.596Z,21.90
2018-05-06T11:10:42.212Z,22.00
2018-05-06T11:13:09.811Z,22.12
2018-05-06T11:15:37.402Z,22.19
2018-05-06T11:18:05.015Z,22.24
2018-05-06T11:20:32.608Z,22.26
2018-05-06T11:23:00.654Z,22.44
2018-05-06T11:25:28.246Z,22.39
2018-05-06T11:27:55.841Z,22.56
2018-05-06T11:30:23.471Z,22.60
2018-05-06T11:32:51.087Z,22.68
2018-05-06T11:35:18.718Z,22.52
2018-05-06T11:37:46.313Z,22.53
2018-05-06T11:40:13.922Z,22.69
2018-05-06T11:42:41.513Z,22.83
2018-05-06T11:45:09.127Z,22.83
2018-05-06T11:47:36.731Z,22.99
2018-05-06T11:50:04.365Z,23.22
2018-05-06T11:52:31.956Z,23.43
2018-05-06T11:55:00.129Z,23.61
2018-05-06T11:57:27.682Z,23.87
2018-05-06T11:59:56.018Z,23.98
2018-05-06T12:02:23.683Z,23.85
2018-05-06T12:04:51.259Z,23.87
2018-05-06T12:07:18.863Z,24.19
2018-05-06T12:09:46.446Z,24.03
2018-05-06T12:12:14.220Z,24.23
2018-05-06T12:14:41.887Z,24.48
2018-05-06T12:17:09.470Z,24.66
2018-05-06T12:19:37.107Z,24.81
2018-05-06T12:22:04.710Z,24.56
2018-05-06T12:24:32.495Z,24.45
2018-05-06T12:27:01.080Z,24.39
2018-05-06T12:29:28.971Z,24.54
2018-05-06T12:31:56.588Z,24.20
2018-05-06T12:34:24.186Z,24.35
2018-05-06T12:36:51.799Z,24.42
2018-05-06T12:39:19.391Z,24.48
2018-05-06T12:41:47.194Z,24.67
2018-05-06T12:44:14.793Z,24.49
2018-05-06T12:46:42.384Z,24.76
2018-05-06T12:49:10.004Z,24.94
2018-05-06T12:51:37.595Z,25.12
2018-05-06T12:54:05.222Z,25.74
2018-05-06T12:56:32.807Z,26.39
2018-05-06T12:59:00.841Z,27.02
2018-05-06T13:01:28.436Z,27.80
2018-05-06T13:03:56.043Z,28.62
2018-05-06T13:06:23.653Z,29.79
2018-05-06T13:08:51.250Z,30.84
2018-05-06T13:11:18.864Z,31.76
2018-05-06T13:13:46.462Z,32.12
2018-05-06T13:16:14.422Z,32.62
2018-05-06T13:18:42.033Z,33.12
2018-05-06T13:21:09.627Z,33.56
2018-05-06T13:23:37.245Z,33.24
2018-05-06T13:26:04.912Z,32.74
2018-05-06T13:28:32.533Z,33.13
2018-05-06T13:31:00.141Z,33.29
2018-05-06T13:33:27.782Z,34.53
2018-05-06T13:35:55.371Z,34.39
2018-05-06T13:38:22.965Z,34.25
2018-05-06T13:40:50.675Z,33.79
2018-05-06T13:43:18.263Z,34.67
2018-05-06T13:45:45.883Z,34.19
2018-05-06T13:48:13.475Z,34.05
2018-05-06T13:50:41.289Z,34.11
2018-05-06T13:53:08.879Z,34.28
2018-05-06T13:55:36.550Z,33.35
2018-05-06T13:58:04.229Z,33.07
2018-05-06T14:00:31.833Z,31.12
2018-05-06T14:02:59.443Z,30.58
2018-05-06T14:05:27.041Z,29.48
2018-05-06T14:07:54.909Z,29.09
2018-05-06T14:10:22.527Z,28.34
2018-05-06T14:12:50.123Z,27.75
2018-05-06T14:15:17.871Z,27.34
2018-05-06T14:17:45.465Z,26.84
2018-05-06T14:20:13.079Z,26.27
2018-05-06T14:22:40.663Z,25.95
2018-05-06T14:25:08.275Z,25.74
2018-05-06T14:27:35.874Z,25.64
2018-05-06T14:30:03.532Z,25.48
2018-05-06T14:32:31.115Z,25.24
2018-05-06T14:34:58.711Z,25.19
2018-05-06T14:37:26.333Z,25.08
2018-05-06T14:39:54.082Z,24.97
2018-05-06T14:42:21.749Z,24.95
2018-05-06T14:44:49.333Z,24.82
2018-05-06T14:47:28.572Z,24.76
2018-05-06T14:49:56.163Z,24.80
2018-05-06T14:52:23.794Z,24.79
2018-05-06T14:54:51.393Z,24.68
2018-05-06T14:57:18.978Z,24.67
2018-05-06T14:59:46.594Z,24.51
2018-05-06T15:02:14.183Z,24.48
2018-05-06T15:04:41.803Z,24.50
2018-05-06T15:07:09.400Z,24.62
2018-05-06T15:09:37.039Z,24.68
2018-05-06T15:12:04.639Z,24.70
2018-05-06T15:14:37.080Z,24.57
2018-05-06T15:17:04.690Z,24.48
2018-05-06T15:19:32.298Z,24.37
2018-05-06T15:21:59.924Z,24.30
2018-05-06T15:24:27.519Z,24.32
2018-05-06T15:26:55.543Z,24.32
2018-05-06T15:29:23.200Z,24.29
2018-05-06T15:31:50.765Z,24.36
2018-05-06T15:34:18.382Z,24.34
2018-05-06T15:36:45.971Z,24.22
2018-05-06T15:39:13.586Z,24.12
2018-05-06T15:41:41.176Z,24.18
2018-05-06T15:44:08.798Z,24.17
2018-05-06T15:46:36.402Z,24.10
2018-05-06T15:49:04.003Z,23.96
2018-05-06T15:51:31.618Z,23.95
2018-05-06T15:53:59.222Z,23.91
2018-05-06T15:56:26.844Z,23.88
2018-05-06T15:58:54.469Z,23.76
2018-05-06T16:01:22.345Z,23.77
2018-05-06T16:04:01.853Z,23.77
2018-05-06T16:06:29.780Z,23.75
2018-05-06T16:08:57.334Z,23.75
2018-05-06T16:11:24.933Z,23.77
2018-05-06T16:13:52.561Z,23.71
2018-05-06T16:16:20.156Z,23.75
2018-05-06T16:18:47.771Z,23.71
2018-05-06T16:21:15.370Z,23.71
2018-05-06T16:23:43.001Z,23.73
2018-05-06T16:26:10.599Z,23.68
2018-05-06T16:28:38.187Z,23.81
2018-05-06T16:31:05.798Z,23.87
2018-05-06T16:33:33.395Z,23.87
2018-05-06T16:36:01.016Z,23.80
2018-05-06T16:38:28.616Z,23.71
2018-05-06T16:40:56.361Z,23.67
2018-05-06T16:43:23.952Z,23.64
2018-05-06T16:45:51.638Z,23.56
2018-05-06T16:48:19.285Z,23.59
2018-05-06T16:50:46.887Z,23.45
2018-05-06T16:53:14.498Z,23.41
2018-05-06T16:55:42.097Z,23.39
2018-05-06T16:58:09.908Z,23.40
2018-05-06T17:00:37.518Z,23.44
2018-05-06T17:03:05.141Z,23.48
2018-05-06T17:05:32.769Z,23.55
2018-05-06T17:08:00.366Z,23.50
2018-05-06T17:10:27.986Z,23.51
2018-05-06T17:12:55.581Z,23.56
2018-05-06T17:15:23.296Z,23.71
2018-05-06T17:17:50.898Z,24.03
2018-05-06T17:20:18.503Z,24.40
2018-05-06T17:22:46.115Z,24.97
2018-05-06T17:25:13.727Z,25.30
2018-05-06T17:27:41.341Z,25.40
2018-05-06T17:30:09.190Z,25.29
2018-05-06T17:32:36.830Z,25.10
2018-05-06T17:35:04.436Z,24.87
2018-05-06T17:37:32.041Z,24.64
2018-05-06T17:39:59.668Z,24.33
2018-05-06T17:42:27.266Z,24.07
2018-05-06T17:44:55.083Z,23.96
2018-05-06T17:47:22.669Z,23.91
2018-05-06T17:49:50.291Z,23.64
2018-05-06T17:52:17.879Z,23.60
2018-05-06T17:54:45.487Z,23.38
2018-05-06T17:57:13.107Z,23.28
2018-05-06T17:59:40.709Z,23.20
2018-05-06T18:02:08.318Z,23.02
2018-05-06T18:04:35.910Z,22.86
2018-05-06T18:07:03.647Z,22.78
2018-05-06T18:09:31.237Z,22.69
2018-05-06T18:11:58.829Z,22.62
2018-05-06T18:14:26.450Z,22.58
2018-05-06T18:16:54.039Z,22.37
2018-05-06T18:19:21.655Z,22.22
2018-05-06T18:21:49.245Z,22.08
2018-05-06T18:24:16.858Z,22.04
2018-05-06T18:26:44.449Z,21.82
2018-05-06T18:29:12.408Z,21.61
2018-05-06T18:34:13.922Z,21.55
2018-05-06T18:36:41.618Z,21.44
2018-05-06T18:39:09.401Z,21.33
2018-05-06T18:41:37.002Z,21.21
2018-05-06T18:44:04.590Z,21.10
2018-05-06T18:46:32.202Z,21.08
2018-05-06T18:48:59.812Z,20.92
2018-05-06T18:51:27.432Z,20.90
2018-05-06T18:53:55.028Z,20.83
2018-05-06T18:56:22.653Z,20.66
2018-05-06T18:58:50.570Z,20.54
2018-05-06T19:01:18.165Z,20.52
2018-05-06T19:03:45.782Z,20.41
2018-05-06T19:06:13.371Z,20.31
2018-05-06T19:08:40.995Z,20.28
2018-05-06T19:11:08.594Z,20.23
2018-05-06T19:13:36.207Z,20.21
2018-05-06T19:16:03.811Z,20.16
2018-05-06T19:18:31.434Z,20.03
2018-05-06T19:20:59.050Z,20.01
2018-05-06T19:23:26.680Z,19.98
2018-05-06T19:25:54.275Z,19.77
2018-05-06T19:28:21.891Z,19.77
2018-05-06T19:30:49.506Z,19.77
2018-05-06T19:33:17.121Z,19.71
2018-05-06T19:35:44.705Z,19.68
2018-05-06T19:38:12.327Z,19.62
2018-05-06T19:40:39.915Z,19.60
2018-05-06T19:43:07.981Z,19.56
2018-05-06T19:45:35.678Z,19.55
2018-05-06T19:48:03.276Z,19.53
2018-05-06T19:50:30.911Z,19.51
2018-05-06T19:52:58.513Z,19.41
2018-05-06T19:55:26.144Z,19.33
2018-05-06T19:57:53.734Z,19.29
2018-05-06T20:00:21.346Z,19.28
2018-05-06T20:02:49.713Z,19.27
2018-05-06T20:05:18.247Z,19.25
2018-05-06T20:07:45.831Z,19.19
2018-05-06T20:10:13.444Z,19.10
2018-05-06T20:12:41.048Z,19.07
2018-05-06T20:15:08.667Z,18.99
2018-05-06T20:17:36.268Z,18.97
2018-05-06T20:20:03.890Z,18.97
2018-05-06T20:22:31.480Z,18.91
2018-05-06T20:24:59.108Z,18.84
2018-05-06T20:27:26.704Z,18.82
2018-05-06T20:29:54.318Z,18.80
2018-05-06T20:32:21.903Z,18.79
2018-05-06T20:34:49.517Z,18.74
2018-05-06T20:37:17.102Z,18.67
2018-05-06T20:39:44.722Z,18.59
2018-05-06T20:42:12.314Z,18.55
2018-05-06T20:44:39.941Z,18.52
2018-05-06T20:47:07.534Z,18.49
2018-05-06T20:49:35.525Z,18.50
2018-05-06T20:52:03.116Z,18.46
2018-05-06T20:54:30.712Z,18.40
2018-05-06T20:56:58.332Z,18.29
2018-05-06T20:59:25.922Z,18.21
2018-05-06T21:01:53.537Z,18.19
2018-05-06T21:04:21.133Z,18.16
2018-05-06T21:06:48.745Z,18.12
2018-05-06T21:09:16.337Z,17.99
2018-05-06T21:11:43.924Z,17.94
2018-05-06T21:14:11.537Z,17.89
2018-05-06T21:16:39.126Z,17.82
2018-05-06T21:19:06.830Z,17.74
2018-05-06T21:21:34.372Z,17.66
2018-05-06T21:24:02.026Z,17.64
2018-05-06T21:26:29.622Z,17.52
2018-05-06T21:28:57.429Z,17.49
2018-05-06T21:31:25.041Z,17.46
2018-05-06T21:33:52.643Z,17.47
2018-05-06T21:36:20.311Z,17.44
2018-05-06T21:38:47.869Z,17.40
2018-05-06T21:41:15.484Z,17.44
2018-05-06T21:43:43.081Z,17.38
2018-05-06T21:46:10.976Z,17.43
2018-05-06T21:48:38.578Z,17.31
2018-05-06T21:51:11.924Z,17.30
2018-05-06T21:53:39.572Z,17.35
2018-05-06T21:56:07.283Z,17.35
2018-05-06T21:58:34.903Z,17.26
2018-05-06T22:01:02.491Z,17.26
2018-05-06T22:03:30.099Z,17.24
2018-05-06T22:05:57.693Z,17.21
2018-05-06T22:08:25.326Z,17.21
2018-05-06T22:10:52.917Z,17.26
2018-05-06T22:13:20.505Z,17.25
2018-05-06T22:15:48.211Z,17.21
2018-05-06T22:18:15.805Z,17.20
2018-05-06T22:20:43.424Z,17.15
2018-05-06T22:23:11.080Z,17.08
2018-05-06T22:25:38.874Z,16.99
2018-05-06T22:28:06.463Z,17.02
2018-05-06T22:30:34.059Z,16.97
2018-05-06T22:33:01.671Z,16.97
2018-05-06T22:35:29.259Z,17.03
2018-05-06T22:37:56.865Z,16.98
2018-05-06T22:40:25.377Z,16.95
2018-05-06T22:42:53.003Z,16.91
2018-05-06T22:45:20.602Z,16.91
2018-05-06T22:47:48.206Z,16.91
2018-05-06T22:50:15.840Z,16.86
2018-05-06T22:52:43.439Z,16.87
2018-05-06T22:55:11.056Z,16.83
2018-05-06T22:57:38.660Z,16.85
2018-05-06T23:00:06.285Z,16.83
2018-05-06T23:02:33.878Z,16.80
2018-05-06T23:05:01.539Z,16.81
2018-05-06T23:07:29.151Z,16.76
2018-05-06T23:09:57.524Z,16.74
2018-05-06T23:12:25.140Z,16.71
2018-05-06T23:14:52.767Z,16.68
2018-05-06T23:17:20.371Z,16.64
2018-05-06T23:19:47.964Z,16.62
2018-05-06T23:22:15.946Z,16.61
2018-05-06T23:24:43.535Z,16.62
2018-05-06T23:27:11.124Z,16.59
2018-05-06T23:29:38.733Z,16.56
2018-05-06T23:32:06.327Z,16.50
2018-05-06T23:34:33.936Z,16.48
2018-05-06T23:37:01.527Z,16.46
2018-05-06T23:39:29.490Z,16.40
2018-05-06T23:41:57.079Z,16.31
2018-05-06T23:44:24.691Z,16.27
2018-05-06T23:46:52.309Z,16.25
2018-05-06T23:49:19.913Z,16.27
2018-05-06T23:51:47.554Z,16.18
2018-05-06T23:54:15.150Z,16.19
2018-05-06T23:56:42.772Z,16.17
2018-05-06T23:59:10.363Z,16.10
